createdAt,value
2022-08-27T00:00:49.390Z,2.40
2022-08-27T00:03:17.119Z,2.90
2022-08-27T00:05:44.483Z,2.70
2022-08-27T00:08:13.186Z,3.22
2022-08-27T00:10:41.781Z,3.40
2022-08-27T00:13:09.094Z,2.63
2022-08-27T00:15:35.842Z,3.17
2022-08-27T00:18:02.594Z,2.50
2022-08-27T00:20:29.268Z,3.13
2022-08-27T00:22:56.053Z,2.53
2022-08-27T00:25:23.670Z,2.38
2022-08-27T00:27:51.094Z,2.67
2022-08-27T00:30:21.136Z,2.33
2022-08-27T00:32:48.565Z,2.47
2022-08-27T00:35:17.194Z,2.80
2022-08-27T00:37:44.861Z,2.25
2022-08-27T00:40:19.749Z,2.60
2022-08-27T00:42:47.635Z,2.25
2022-08-27T00:45:20.738Z,2.30
2022-08-27T00:47:55.803Z,1.80
2022-08-27T00:50:37.559Z,2.30
2022-08-27T00:53:19.381Z,2.90
2022-08-27T00:56:02.898Z,3.03
2022-08-27T00:58:35.480Z,2.70
2022-08-27T01:01:03.006Z,2.05
2022-08-27T01:03:30.198Z,2.33
2022-08-27T01:06:01.906Z,2.10
2022-08-27T01:08:34.339Z,2.10
2022-08-27T01:11:02.205Z,1.92
2022-08-27T01:13:58.692Z,2.15
2022-08-27T01:16:32.690Z,2.00
2022-08-27T01:19:46.861Z,2.20
2022-08-27T01:22:46.721Z,1.90
2022-08-27T01:25:17.128Z,1.90
2022-08-27T01:27:45.934Z,1.73
2022-08-27T01:30:17.502Z,1.90
2022-08-27T01:32:45.918Z,1.73
2022-08-27T01:35:14.805Z,2.40
2022-08-27T01:37:45.239Z,2.25
2022-08-27T01:40:16.802Z,1.90
2022-08-27T01:42:50.221Z,2.00
2022-08-27T01:45:24.787Z,1.70
2022-08-27T01:47:52.078Z,1.80
2022-08-27T01:50:25.027Z,2.22
2022-08-27T01:52:54.137Z,1.73
2022-08-27T01:55:25.612Z,2.28
2022-08-27T01:57:54.397Z,2.03
2022-08-27T02:00:29.680Z,1.48
2022-08-27T02:02:59.263Z,1.77
2022-08-27T02:05:28.081Z,1.92
2022-08-27T02:07:55.768Z,1.73
2022-08-27T02:10:31.352Z,1.52
2022-08-27T02:12:58.201Z,2.00
2022-08-27T02:15:26.284Z,1.90
2022-08-27T02:17:53.041Z,1.90
2022-08-27T02:20:22.068Z,1.83
2022-08-27T02:22:49.657Z,1.73
2022-08-27T02:25:19.421Z,1.90
2022-08-27T02:27:48.589Z,1.60
2022-08-27T02:30:21.017Z,2.03
2022-08-27T02:32:48.071Z,2.08
2022-08-27T02:35:16.800Z,2.05
2022-08-27T02:37:44.591Z,2.10
2022-08-27T02:40:17.308Z,3.13
2022-08-27T02:42:45.616Z,2.65
2022-08-27T02:45:14.414Z,2.95
2022-08-27T02:47:41.475Z,2.92
2022-08-27T02:50:10.351Z,2.67
2022-08-27T02:52:37.489Z,3.08
2022-08-27T02:55:06.590Z,2.95
2022-08-27T02:57:36.588Z,2.85
2022-08-27T03:00:08.963Z,2.63
2022-08-27T03:02:36.557Z,3.17
2022-08-27T03:05:05.225Z,2.97
2022-08-27T03:07:31.839Z,4.35
2022-08-27T03:09:58.557Z,3.10
2022-08-27T03:12:25.158Z,3.50
2022-08-27T03:14:52.003Z,3.88
2022-08-27T03:17:37.428Z,3.00
2022-08-27T03:20:24.262Z,2.78
2022-08-27T03:22:51.167Z,3.25
2022-08-27T03:25:18.463Z,2.67
2022-08-27T03:27:45.392Z,2.30
2022-08-27T03:30:17.704Z,2.13
2022-08-27T03:32:44.955Z,2.00
2022-08-27T03:35:12.864Z,2.70
2022-08-27T03:37:40.311Z,2.15
2022-08-27T03:40:09.100Z,2.00
2022-08-27T03:42:36.787Z,2.10
2022-08-27T03:45:04.854Z,2.45
2022-08-27T03:47:32.347Z,2.17
2022-08-27T03:50:00.625Z,2.10
2022-08-27T03:52:28.881Z,2.30
2022-08-27T03:54:55.673Z,2.33
2022-08-27T03:57:22.347Z,2.10
2022-08-27T03:59:48.959Z,2.65
2022-08-27T04:02:21.098Z,2.55
2022-08-27T04:04:47.851Z,2.80
2022-08-27T04:07:14.529Z,3.70
2022-08-27T04:09:41.156Z,3.10
2022-08-27T04:12:08.325Z,3.25
2022-08-27T04:14:34.991Z,4.18
2022-08-27T04:17:02.268Z,4.32
2022-08-27T04:19:42.868Z,3.70
2022-08-27T04:22:09.539Z,3.67
2022-08-27T04:24:37.932Z,4.70
2022-08-27T04:27:06.101Z,4.80
2022-08-27T04:29:33.442Z,3.75
2022-08-27T04:32:01.243Z,3.38
2022-08-27T04:34:28.083Z,3.35
2022-08-27T04:36:56.903Z,3.72
2022-08-27T04:39:26.038Z,3.30
2022-08-27T04:41:56.083Z,3.63
2022-08-27T04:44:25.328Z,5.68
2022-08-27T04:46:57.984Z,4.70
2022-08-27T04:49:26.870Z,4.85
2022-08-27T04:51:55.123Z,4.05
2022-08-27T04:54:32.168Z,3.50
2022-08-27T04:57:03.941Z,3.30
2022-08-27T05:01:59.609Z,4.82
2022-08-27T05:04:26.612Z,3.50
2022-08-27T05:06:54.819Z,3.30
2022-08-27T05:09:21.698Z,4.30
2022-08-27T05:11:52.149Z,3.10
2022-08-27T05:14:19.870Z,3.65
2022-08-27T05:16:47.560Z,3.92
2022-08-27T05:19:33.332Z,4.40
2022-08-27T05:22:01.479Z,3.38
2022-08-27T05:24:28.167Z,2.90
2022-08-27T05:26:54.766Z,2.92
2022-08-27T05:29:22.184Z,3.15
2022-08-27T05:31:48.998Z,2.72
2022-08-27T05:34:22.203Z,3.03
2022-08-27T05:36:53.400Z,3.92
2022-08-27T05:39:20.050Z,4.70
2022-08-27T05:41:46.740Z,3.20
2022-08-27T05:47:03.120Z,3.50
2022-08-27T05:49:29.728Z,3.03
2022-08-27T05:51:56.315Z,2.88
2022-08-27T05:54:23.621Z,2.80
2022-08-27T05:56:50.458Z,2.80
2022-08-27T05:59:37.212Z,2.65
2022-08-27T06:02:05.964Z,3.30
2022-08-27T06:04:32.571Z,3.30
2022-08-27T06:06:59.162Z,3.95
2022-08-27T06:09:29.258Z,4.00
2022-08-27T06:11:59.992Z,3.58
2022-08-27T06:14:27.654Z,2.58
2022-08-27T06:16:55.332Z,2.83
2022-08-27T06:19:36.201Z,3.28
2022-08-27T06:22:09.887Z,3.47
2022-08-27T06:24:40.268Z,3.28
2022-08-27T06:27:08.965Z,3.65
2022-08-27T06:29:35.555Z,3.35
2022-08-27T06:32:02.434Z,3.33
2022-08-27T06:34:29.367Z,3.40
2022-08-27T06:36:55.969Z,3.95
2022-08-27T06:39:22.523Z,3.20
2022-08-27T06:41:50.241Z,3.47
2022-08-27T06:44:17.627Z,3.33
2022-08-27T06:46:44.381Z,3.47
2022-08-27T06:49:12.762Z,6.82
2022-08-27T06:51:44.723Z,6.18
2022-08-27T06:54:14.582Z,3.72
2022-08-27T06:56:44.417Z,4.90
2022-08-27T06:59:15.508Z,3.42
2022-08-27T07:01:46.843Z,5.00
2022-08-27T07:04:22.644Z,3.88
2022-08-27T07:06:57.525Z,3.50
2022-08-27T07:09:25.393Z,6.03
2022-08-27T07:11:52.040Z,5.50
2022-08-27T07:14:18.974Z,4.75
2022-08-27T07:16:45.608Z,5.20
2022-08-27T07:19:15.931Z,5.20
2022-08-27T07:21:44.106Z,7.32
2022-08-27T07:24:12.293Z,4.93
2022-08-27T07:26:49.655Z,5.80
2022-08-27T07:29:29.188Z,6.57
2022-08-27T07:32:01.103Z,6.03
2022-08-27T07:34:28.136Z,5.43
2022-08-27T07:37:17.243Z,5.72
2022-08-27T07:39:47.636Z,5.47
2022-08-27T07:42:41.018Z,4.35
2022-08-27T07:45:25.173Z,4.60
2022-08-27T07:48:05.416Z,4.07
2022-08-27T07:51:18.888Z,4.30
2022-08-27T07:53:51.311Z,5.57
2022-08-27T07:56:36.972Z,6.20
2022-08-27T07:59:47.040Z,4.90
2022-08-27T08:02:39.541Z,7.47
2022-08-27T08:05:12.683Z,5.28
2022-08-27T08:08:21.772Z,5.35
2022-08-27T08:10:51.279Z,5.07
2022-08-27T08:14:09.288Z,4.88
2022-08-27T08:16:53.748Z,8.13
2022-08-27T08:20:08.525Z,5.93
2022-08-27T08:22:59.225Z,4.53
2022-08-27T08:25:57.410Z,5.03
2022-08-27T08:36:01.796Z,6.15
2022-08-27T08:39:09.240Z,8.65
2022-08-27T08:49:58.099Z,7.55
2022-08-27T08:55:08.962Z,6.93
2022-08-27T08:57:18.592Z,4.93
2022-08-27T09:02:49.870Z,5.68
2022-08-27T09:07:04.396Z,5.68
2022-08-27T09:08:53.498Z,4.88
2022-08-27T09:19:17.480Z,5.57
2022-08-27T09:22:26.961Z,4.38
2022-08-27T09:26:02.370Z,3.97
2022-08-27T09:29:52.141Z,3.60
2022-08-27T09:32:17.732Z,4.03
2022-08-27T09:39:14.786Z,3.25
2022-08-27T09:46:04.786Z,3.17
2022-08-27T09:50:00.001Z,2.88
2022-08-27T09:55:33.081Z,2.95
2022-08-27T10:02:09.128Z,3.00
2022-08-27T10:05:23.740Z,3.60
2022-08-27T10:12:28.710Z,3.10
2022-08-27T10:15:44.064Z,2.70
2022-08-27T10:18:27.749Z,2.33
2022-08-27T10:25:29.220Z,2.83
2022-08-27T10:29:12.759Z,2.33
2022-08-27T10:47:25.842Z,4.70
2022-08-27T10:50:13.864Z,4.15
2022-08-27T10:52:58.561Z,3.80
2022-08-27T10:56:07.883Z,3.63
2022-08-27T11:03:35.549Z,3.90
2022-08-27T11:07:15.556Z,3.72
2022-08-27T11:10:48.913Z,3.95
2022-08-27T11:13:39.696Z,3.67
2022-08-27T11:17:16.640Z,2.65
2022-08-27T11:23:57.389Z,3.95
2022-08-27T11:26:53.457Z,3.53
2022-08-27T11:29:47.379Z,3.25
2022-08-27T11:33:13.676Z,3.08
2022-08-27T11:37:29.996Z,3.08
2022-08-27T11:40:22.466Z,2.60
2022-08-27T11:43:32.801Z,2.83
2022-08-27T11:57:27.385Z,2.15
2022-08-27T12:01:22.094Z,2.20
2022-08-27T12:05:15.986Z,2.65
2022-08-27T12:07:44.699Z,2.72
2022-08-27T12:10:52.152Z,3.00
2022-08-27T12:22:39.996Z,3.30
2022-08-27T12:28:05.728Z,2.63
2022-08-27T12:37:07.535Z,2.35
2022-08-27T12:40:32.274Z,3.58
2022-08-27T12:43:20.157Z,2.50
2022-08-27T12:47:05.038Z,2.60
2022-08-27T12:57:39.111Z,3.15
2022-08-27T13:05:37.267Z,2.75
2022-08-27T13:08:45.273Z,2.65
2022-08-27T13:16:02.771Z,2.10
2022-08-27T13:19:32.777Z,2.10
2022-08-27T13:26:10.859Z,2.70
2022-08-27T13:28:53.331Z,2.63
2022-08-27T13:32:20.055Z,2.10
2022-08-27T13:35:43.779Z,1.90
2022-08-27T13:38:35.182Z,1.90
2022-08-27T13:43:08.817Z,1.95
2022-08-27T13:48:28.899Z,1.90
2022-08-27T13:51:15.881Z,1.45
2022-08-27T13:57:52.351Z,1.70
2022-08-27T14:05:16.610Z,2.00
2022-08-27T14:08:40.524Z,1.70
2022-08-27T14:12:17.117Z,1.58
2022-08-27T14:41:25.157Z,1.80
2022-08-27T14:43:57.709Z,1.95
2022-08-27T14:50:40.124Z,2.08
2022-08-27T14:54:06.009Z,2.10
2022-08-27T15:00:28.207Z,2.40
2022-08-27T15:03:32.538Z,2.60
2022-08-27T15:07:01.002Z,2.28
2022-08-27T15:13:15.177Z,2.53
2022-08-27T15:20:19.842Z,2.30
2022-08-27T15:23:40.660Z,2.53
2022-08-27T15:26:43.502Z,2.38
2022-08-27T15:33:28.908Z,2.40
2022-08-27T15:36:21.605Z,2.40
2022-08-27T15:39:36.523Z,2.95
2022-08-27T15:42:50.920Z,2.90
2022-08-27T15:46:03.981Z,3.20
2022-08-27T15:48:33.629Z,2.58
2022-08-27T15:51:53.151Z,2.78
2022-08-27T15:54:24.391Z,2.88
2022-08-27T15:57:05.096Z,3.20
2022-08-27T15:59:44.563Z,2.35
2022-08-27T16:03:02.870Z,2.25
2022-08-27T16:06:02.449Z,2.30
2022-08-27T16:08:41.986Z,2.03
2022-08-27T16:11:09.946Z,2.20
2022-08-27T16:14:10.698Z,3.15
2022-08-27T16:17:00.782Z,2.90
2022-08-27T16:20:20.543Z,2.92
2022-08-27T16:23:04.962Z,2.83
2022-08-27T16:25:52.384Z,2.20
2022-08-27T16:28:28.171Z,2.70
2022-08-27T16:30:57.356Z,2.70
2022-08-27T16:33:29.022Z,3.20
2022-08-27T16:35:55.812Z,3.20
2022-08-27T16:38:25.215Z,2.58
2022-08-27T16:41:02.225Z,3.00
2022-08-27T16:43:39.072Z,2.92
2022-08-27T16:49:30.944Z,3.50
2022-08-27T16:52:07.208Z,2.95
2022-08-27T16:54:36.973Z,3.75
2022-08-27T16:57:07.469Z,2.97
2022-08-27T17:04:49.356Z,2.40
2022-08-27T17:08:19.544Z,2.38
2022-08-27T17:19:34.130Z,1.80
2022-08-27T17:35:10.514Z,2.40
2022-08-27T17:42:47.001Z,1.90
2022-08-27T18:11:36.398Z,3.20
2022-08-27T18:19:06.999Z,2.70
2022-08-27T18:28:56.279Z,2.40
2022-08-27T23:21:40.245Z,4.80
